Time;durP1;ratioP1;P1;durP2;ratioP2;P2;SDS_P1;SDS_P2;PMS_P1;PMS_P2;Temp;Humidity;BMP_temperature;BMP_pressure;BME280_temperature;BME280_humidity;BME280_pressure;Samples;Min_cycle;Max_cycle;Signal;HPM_P1;HPM_P2
2020/12/25 00:00:44;;;;;;;154.30;73.20;;;;;;;4.54;99.87;96728.25;5004690;28;20026;-64
2020/12/25 00:03:14;;;;;;;145.75;68.03;;;;;;;4.66;99.89;96758.44;5004550;28;20034;-63
2020/12/25 00:05:43;;;;;;;311.80;128.30;;;;;;;4.31;99.83;96702.38;5004727;28;20038;-62
2020/12/25 00:08:08;;;;;;;122.10;57.47;;;;;;;4.66;100.00;96758.44;5003075;28;20030;-63
2020/12/25 00:10:34;;;;;;;89.53;43.47;;;;;;;4.59;100.00;96763.69;5002603;28;20493;-62
2020/12/25 00:12:59;;;;;;;88.75;46.15;;;;;;;4.60;100.00;96753.50;5004252;28;20323;-63
2020/12/25 00:15:24;;;;;;;76.15;38.13;;;;;;;4.59;100.00;96747.25;5003962;28;20049;-63
2020/12/25 00:17:50;;;;;;;77.85;38.13;;;;;;;4.59;100.00;96758.22;5004306;28;20472;-63
2020/12/25 00:20:15;;;;;;;86.00;40.15;;;;;;;4.07;100.00;96691.34;5004184;28;20160;-63
2020/12/25 00:22:41;;;;;;;73.85;33.83;;;;;;;4.35;100.00;96719.75;5002719;28;20034;-62
2020/12/25 00:25:06;;;;;;;94.43;49.63;;;;;;;4.49;100.00;96750.41;5004069;28;20029;-62
2020/12/25 00:27:31;;;;;;;106.95;54.08;;;;;;;4.45;100.00;96745.94;5002801;28;20034;-63
2020/12/25 00:29:57;;;;;;;171.18;58.97;;;;;;;3.97;100.00;96669.81;5004081;28;20060;-62
2020/12/25 00:32:22;;;;;;;117.38;50.78;;;;;;;4.49;100.00;96752.34;5004260;28;20053;-63
2020/12/25 00:34:47;;;;;;;148.15;54.78;;;;;;;4.45;100.00;96754.97;5002562;28;20037;-62
2020/12/25 00:37:13;;;;;;;228.55;73.32;;;;;;;4.47;100.00;96747.19;5004377;28;20038;-62
2020/12/25 00:39:39;;;;;;;134.68;60.47;;;;;;;4.41;100.00;96756.78;5002698;28;20121;-63
2020/12/25 00:42:05;;;;;;;142.73;59.45;;;;;;;4.45;100.00;96757.72;5002760;28;20044;-62
2020/12/25 00:44:30;;;;;;;149.23;65.30;;;;;;;4.54;100.00;96761.16;5007665;28;20037;-62
2020/12/25 00:46:56;;;;;;;141.38;62.47;;;;;;;4.24;100.00;96739.69;5006424;28;20167;-62
2020/12/25 00:49:21;;;;;;;120.60;57.08;;;;;;;4.42;100.00;96768.56;5007607;28;20029;-64
2020/12/25 00:51:47;;;;;;;116.40;55.45;;;;;;;4.41;100.00;96762.25;5005963;28;20041;-62
2020/12/25 00:54:13;;;;;;;99.70;48.40;;;;;;;3.73;100.00;96795.69;5007172;28;20058;-62
2020/12/25 00:56:38;;;;;;;99.03;48.60;;;;;;;3.33;100.00;96753.44;5007424;28;20429;-62
2020/12/25 00:59:03;;;;;;;103.20;49.17;;;;;;;3.39;100.00;96768.53;5007493;28;20038;-63
2020/12/25 01:01:29;;;;;;;109.35;53.58;;;;;;;3.56;100.00;96779.38;5007233;28;20042;-63
2020/12/25 01:03:54;;;;;;;168.85;70.60;;;;;;;3.64;100.00;96759.38;5007195;28;20036;-62
2020/12/25 01:06:20;;;;;;;143.95;63.75;;;;;;;3.61;100.00;96760.03;5007144;28;20034;-63
2020/12/25 01:08:48;;;;;;;135.55;61.17;;;;;;;3.72;100.00;96766.72;5007060;28;20073;-62
2020/12/25 01:11:14;;;;;;;134.07;61.67;;;;;;;2.76;100.00;96599.16;5007474;28;20044;-62
2020/12/25 01:13:41;;;;;;;112.28;53.05;;;;;;;3.81;100.00;96761.97;5006989;28;20038;-64
2020/12/25 01:16:09;;;;;;;78.22;38.17;;;;;;;3.93;100.00;96744.81;5006565;28;20091;-65
2020/12/25 01:18:35;;;;;;;74.03;36.72;;;;;;;3.90;100.00;96751.78;5005302;28;20579;-63
2020/12/25 01:21:01;;;;;;;61.38;28.83;;;;;;;3.92;100.00;96744.00;5006768;28;20037;-63
2020/12/25 01:23:27;;;;;;;97.20;43.00;;;;;;;3.86;100.00;96748.06;5006775;28;20046;-62
2020/12/25 01:25:52;;;;;;;103.35;46.35;;;;;;;3.90;100.00;96746.28;5007260;28;20387;-64
2020/12/25 01:28:18;;;;;;;109.65;50.78;;;;;;;3.82;100.00;96747.16;5005201;28;20493;-63
2020/12/25 01:30:44;;;;;;;100.40;47.28;;;;;;;3.87;100.00;96751.63;5006494;28;20037;-63
2020/12/25 01:33:09;;;;;;;82.20;38.50;;;;;;;3.89;100.00;96750.16;5007182;28;20041;-61
2020/12/25 01:35:36;;;;;;;94.13;43.65;;;;;;;3.85;100.00;96743.75;5005213;28;20045;-63
2020/12/25 01:38:01;;;;;;;79.35;37.60;;;;;;;3.31;100.00;96679.06;5005425;28;20183;-62
2020/12/25 01:40:27;;;;;;;94.03;42.47;;;;;;;3.70;100.00;96736.13;5005072;28;20030;-62
2020/12/25 01:42:52;;;;;;;93.38;43.35;;;;;;;3.80;100.00;96738.47;5005233;28;20485;-62
2020/12/25 01:45:17;;;;;;;114.70;52.78;;;;;;;3.79;100.00;96734.13;5006364;28;20038;-62
2020/12/25 01:47:43;;;;;;;101.18;51.80;;;;;;;3.26;100.00;96654.63;5004988;28;20048;-61
2020/12/25 01:50:09;;;;;;;101.35;46.17;;;;;;;3.75;100.00;96710.47;5006677;28;20057;-62
2020/12/25 01:52:36;;;;;;;91.05;42.40;;;;;;;3.46;100.00;96664.81;5006354;28;20065;-62
2020/12/25 01:55:04;;;;;;;80.57;36.25;;;;;;;3.42;100.00;96669.34;5003677;28;20037;-63
2020/12/25 01:57:30;;;;;;;80.75;37.35;;;;;;;3.38;100.00;96679.38;5006565;28;20037;-62
2020/12/25 01:59:56;;;;;;;80.00;38.60;;;;;;;3.51;100.00;96681.00;5004596;28;20030;-62
2020/12/25 02:02:24;;;;;;;78.13;39.17;;;;;;;2.92;100.00;96586.50;5004539;28;20042;-62
2020/12/25 02:04:49;;;;;;;79.25;37.78;;;;;;;3.07;100.00;96613.25;5005795;28;20038;-63
2020/12/25 02:07:15;;;;;;;114.28;50.95;;;;;;;3.28;100.00;96663.31;5004199;28;20092;-62
2020/12/25 02:09:40;;;;;;;167.32;53.15;;;;;;;3.80;100.00;96724.78;5005739;28;20057;-63
2020/12/25 02:12:06;;;;;;;213.10;83.47;;;;;;;3.47;100.00;96649.97;5004384;28;20037;-61
2020/12/25 02:14:32;;;;;;;104.55;49.35;;;;;;;3.78;100.00;96710.59;5004716;28;20045;-64
2020/12/25 02:16:57;;;;;;;86.78;41.65;;;;;;;2.87;100.00;96560.16;5004337;28;20044;-62
2020/12/25 02:19:23;;;;;;;86.20;38.65;;;;;;;3.77;100.00;96711.75;5005957;28;20033;-62
2020/12/25 02:21:48;;;;;;;157.45;59.05;;;;;;;3.83;100.00;96710.41;5004312;28;20049;-61
2020/12/25 02:24:13;;;;;;;171.13;60.00;;;;;;;2.95;100.00;96581.16;5005831;28;20092;-62
2020/12/25 02:26:39;;;;;;;146.75;56.88;;;;;;;3.31;100.00;96687.28;5005459;28;20038;-62
2020/12/25 02:29:04;;;;;;;172.70;58.83;;;;;;;3.25;100.00;96685.88;5005940;28;20456;-62
2020/12/25 02:31:30;;;;;;;212.05;55.40;;;;;;;3.48;100.00;96717.28;5005817;28;20040;-62
2020/12/25 02:33:55;;;;;;;144.90;51.80;;;;;;;3.46;100.00;96719.56;5004154;28;20048;-62
2020/12/25 02:36:20;;;;;;;121.05;49.88;;;;;;;3.47;100.00;96704.72;5003918;28;20416;-63
2020/12/25 02:38:46;;;;;;;118.57;49.45;;;;;;;3.44;100.00;96694.44;5004281;28;20063;-62
2020/12/25 02:41:12;;;;;;;118.68;45.58;;;;;;;3.10;100.00;96638.00;5005716;28;20026;-62
2020/12/25 02:43:37;;;;;;;101.28;44.00;;;;;;;3.59;100.00;96707.53;5005510;28;20034;-62
2020/12/25 02:46:03;;;;;;;92.93;38.67;;;;;;;3.57;100.00;96709.81;5003530;28;20034;-61
2020/12/25 02:48:29;;;;;;;90.68;40.63;;;;;;;3.54;100.00;96712.41;5005349;28;20112;-61
2020/12/25 02:50:54;;;;;;;94.95;43.38;;;;;;;3.10;100.00;96635.28;5005522;28;20492;-62
2020/12/25 02:53:19;;;;;;;82.20;40.28;;;;;;;2.72;100.00;96570.84;5005037;28;20061;-62
2020/12/25 02:55:45;;;;;;;90.63;39.50;;;;;;;3.26;100.00;96654.63;5005429;28;20041;-61
2020/12/25 02:58:11;;;;;;;84.22;40.13;;;;;;;3.67;100.00;96706.66;5003747;28;20033;-61
2020/12/25 03:00:36;;;;;;;78.05;38.55;;;;;;;3.70;100.00;96708.72;5004994;28;20034;-62
2020/12/25 03:03:01;;;;;;;90.80;42.90;;;;;;;3.69;100.00;96704.41;5005016;28;20034;-61
2020/12/25 03:05:27;;;;;;;100.40;44.00;;;;;;;3.68;100.00;96710.22;5004491;28;20117;-63
2020/12/25 03:07:52;;;;;;;84.72;40.15;;;;;;;3.41;100.00;96695.13;5005168;28;20037;-62
2020/12/25 03:10:18;;;;;;;95.90;43.65;;;;;;;3.41;100.00;96702.53;5003279;28;20038;-62
2020/12/25 03:12:43;;;;;;;96.57;42.70;;;;;;;2.89;100.00;96622.72;5005286;28;20617;-62
2020/12/25 03:15:08;;;;;;;84.22;38.13;;;;;;;3.57;99.48;96719.97;5004778;28;20053;-64
2020/12/25 03:17:34;;;;;;;86.57;38.63;;;;;;;3.00;98.12;96623.94;5004957;28;20471;-62
2020/12/25 03:19:59;;;;;;;86.68;39.08;;;;;;;3.20;99.38;96699.75;5004750;28;20045;-61
2020/12/25 03:22:25;;;;;;;118.13;37.30;;;;;;;3.09;99.78;96677.47;5003375;28;20045;-61
2020/12/25 03:24:50;;;;;;;85.85;32.22;;;;;;;2.83;100.00;96674.06;5004462;28;20049;-62
2020/12/25 03:27:16;;;;;;;109.28;30.48;;;;;;;3.20;100.00;96720.84;5019370;28;20108;-60
2020/12/25 03:29:41;;;;;;;100.90;25.63;;;;;;;3.36;100.00;96714.47;5003439;28;20038;-61
2020/12/25 03:32:06;;;;;;;92.78;25.40;;;;;;;2.80;100.00;96619.22;5003304;28;20117;-64
2020/12/25 03:34:32;;;;;;;101.13;31.38;;;;;;;3.34;100.00;96694.81;5004739;28;20647;-63
2020/12/25 03:36:58;;;;;;;69.00;30.80;;;;;;;3.13;100.00;96666.63;5003087;28;20145;-62
2020/12/25 03:39:24;;;;;;;91.40;34.75;;;;;;;3.34;100.00;96696.75;5004598;28;20459;-64
2020/12/25 03:41:52;;;;;;;111.40;43.00;;;;;;;3.49;100.00;96707.94;5004584;28;20165;-63
2020/12/25 03:44:18;;;;;;;122.20;44.22;;;;;;;3.57;100.00;96703.53;5004545;28;20029;-62
2020/12/25 03:46:44;;;;;;;119.72;46.67;;;;;;;3.50;100.00;96706.81;5002838;28;20085;-62
2020/12/25 03:49:09;;;;;;;161.82;62.58;;;;;;;2.95;100.00;96613.19;5004515;28;20049;-62
2020/12/25 03:51:34;;;;;;;160.23;60.70;;;;;;;3.63;100.00;96719.44;5002763;28;20080;-62
2020/12/25 03:54:00;;;;;;;158.82;57.50;;;;;;;3.65;100.00;96721.84;5004287;28;20042;-63
2020/12/25 03:56:25;;;;;;;122.82;51.85;;;;;;;3.54;100.00;96687.78;5004573;28;20042;-63
2020/12/25 03:58:51;;;;;;;131.80;52.08;;;;;;;3.72;100.00;96701.00;5005153;28;20077;-62
2020/12/25 04:01:17;;;;;;;115.60;48.80;;;;;;;3.67;100.00;96708.59;5003022;28;20481;-64
2020/12/25 04:03:42;;;;;;;103.53;44.72;;;;;;;3.51;100.00;96694.69;5004343;28;20038;-63
2020/12/25 04:06:08;;;;;;;112.82;47.85;;;;;;;3.73;100.00;96701.81;5004010;28;20030;-62
2020/12/25 04:08:33;;;;;;;121.68;53.25;;;;;;;3.73;100.00;96708.06;5004440;28;20540;-62
2020/12/25 04:10:59;;;;;;;122.18;58.10;;;;;;;3.73;100.00;96702.56;5004493;28;20033;-64
2020/12/25 04:13:24;;;;;;;116.85;54.67;;;;;;;3.73;100.00;96702.56;5004388;28;20080;-62
2020/12/25 04:15:49;;;;;;;104.28;50.13;;;;;;;3.74;100.00;96696.00;5004561;28;20485;-64
2020/12/25 04:18:16;;;;;;;95.35;47.13;;;;;;;2.70;100.00;96608.69;5006643;28;20033;-64
2020/12/25 04:20:41;;;;;;;90.47;47.97;;;;;;;3.55;100.00;96667.47;5006219;28;20030;-65
2020/12/25 04:23:06;;;;;;;93.15;44.50;;;;;;;3.18;100.00;96658.22;5006430;28;20034;-63
2020/12/25 04:25:32;;;;;;;86.07;39.72;;;;;;;3.14;100.00;96602.59;5007953;28;20034;-62
2020/12/25 04:27:58;;;;;;;63.45;28.58;;;;;;;3.56;100.00;96639.75;5008055;28;20160;-62
2020/12/25 04:30:23;;;;;;;67.75;34.53;;;;;;;3.38;100.00;96659.38;5006122;28;20030;-63
2020/12/25 04:32:49;;;;;;;64.07;31.70;;;;;;;3.26;100.00;96649.16;5006403;28;20042;-62
2020/12/25 04:35:14;;;;;;;64.15;30.52;;;;;;;3.59;100.00;96702.06;5007626;28;20026;-63
2020/12/25 04:37:40;;;;;;;57.60;28.95;;;;;;;3.58;100.00;96700.47;5006245;28;20106;-63
2020/12/25 04:40:05;;;;;;;64.28;32.88;;;;;;;3.60;100.00;96702.88;5005888;28;20030;-62
2020/12/25 04:42:38;;;;;;;78.70;37.95;;;;;;;3.60;100.00;96698.19;5007804;28;20400;-63
2020/12/25 04:45:04;;;;;;;68.60;34.20;;;;;;;3.61;100.00;96715.41;5007434;28;20503;-62
2020/12/25 04:47:29;;;;;;;85.10;36.97;;;;;;;3.66;99.46;96702.34;5007617;28;20042;-61
2020/12/25 04:49:55;;;;;;;71.97;35.70;;;;;;;2.72;99.84;96560.72;5007457;28;20501;-64
2020/12/25 04:52:20;;;;;;;74.57;35.25;;;;;;;3.26;98.80;96653.84;5007431;28;20404;-63
2020/12/25 04:54:46;;;;;;;88.28;35.30;;;;;;;2.40;100.00;96612.53;5007186;28;20132;-62
2020/12/25 04:57:11;;;;;;;85.72;36.50;;;;;;;2.80;100.00;96658.31;5007467;28;20042;-64
2020/12/25 04:59:37;;;;;;;99.90;50.75;;;;;;;3.15;100.00;96708.16;5005915;28;20037;-63
2020/12/25 05:02:02;;;;;;;76.57;34.05;;;;;;;3.20;100.00;96716.16;5007119;28;20042;-62
2020/12/25 05:04:28;;;;;;;74.35;34.45;;;;;;;3.20;100.00;96699.75;5005927;28;20042;-63
2020/12/25 05:06:54;;;;;;;96.43;40.55;;;;;;;3.10;100.00;96683.72;5005527;28;20584;-62
2020/12/25 05:09:25;;;;;;;152.98;61.45;;;;;;;3.14;100.00;96695.63;5005587;28;20041;-62
2020/12/25 05:11:56;;;;;;;112.97;49.72;;;;;;;3.27;100.00;96694.56;5005451;28;20030;-64
2020/12/25 05:14:26;;;;;;;129.30;54.30;;;;;;;3.27;100.00;96708.25;5007482;28;20041;-63
2020/12/25 05:16:59;;;;;;;139.77;63.33;;;;;;;2.30;100.00;96599.22;5005770;28;20472;-63
2020/12/25 05:19:29;;;;;;;141.07;64.28;;;;;;;2.66;100.00;96632.31;5007431;28;20045;-62
2020/12/25 05:21:57;;;;;;;152.68;66.72;;;;;;;2.51;100.00;96611.03;5007076;28;20029;-62
2020/12/25 05:24:23;;;;;;;140.15;60.38;;;;;;;3.19;100.00;96725.53;5005613;28;20508;-61
2020/12/25 05:26:55;;;;;;;135.70;61.78;;;;;;;2.28;100.00;96574.16;5006680;28;20048;-63
2020/12/25 05:29:22;;;;;;;113.55;46.55;;;;;;;3.06;100.00;96691.00;5006930;28;20117;-62
2020/12/25 05:31:49;;;;;;;101.47;45.35;;;;;;;2.51;100.00;96775.03;5006342;28;20038;-62
2020/12/25 05:34:16;;;;;;;95.30;44.03;;;;;;;0.26;100.00;96290.50;5006669;28;20120;-62
2020/12/25 05:36:49;;;;;;;88.85;43.08;;;;;;;3.03;100.00;96716.28;5004952;28;20041;-62
2020/12/25 05:39:32;;;;;;;90.20;39.97;;;;;;;2.65;100.00;96656.16;5006572;28;20029;-62
2020/12/25 05:42:02;;;;;;;87.88;40.72;;;;;;;3.09;100.00;96736.84;5006672;28;20066;-62
2020/12/25 05:44:30;;;;;;;85.88;39.03;;;;;;;3.16;99.97;96726.19;5006813;28;20049;-65
2020/12/25 05:46:59;;;;;;;76.55;35.17;;;;;;;1.58;100.00;96576.66;5006465;28;20120;-63
2020/12/25 05:49:29;;;;;;;93.00;41.22;;;;;;;2.01;100.00;96662.00;5006467;28;20160;-63
2020/12/25 05:51:55;;;;;;;83.78;39.80;;;;;;;2.76;100.00;96744.06;5006459;28;20460;-64
2020/12/25 05:54:25;;;;;;;112.57;49.17;;;;;;;2.71;100.00;96725.09;5005914;28;20374;-62
2020/12/25 05:56:53;;;;;;;85.80;41.95;;;;;;;2.09;100.00;96636.56;5004629;28;20500;-62
2020/12/25 05:59:24;;;;;;;77.75;36.20;;;;;;;1.89;100.00;96689.16;5006233;28;20030;-63
2020/12/25 06:01:53;;;;;;;76.55;36.28;;;;;;;2.19;100.00;96723.66;5005767;28;20505;-63
2020/12/25 06:04:21;;;;;;;63.45;30.52;;;;;;;2.40;100.00;96735.50;5004588;28;20072;-62
2020/12/25 06:06:48;;;;;;;76.50;34.75;;;;;;;2.50;100.00;96754.25;5004387;28;20073;-61
2020/12/25 06:09:19;;;;;;;92.80;43.45;;;;;;;2.33;100.00;96688.72;5004444;28;20117;-62
2020/12/25 06:11:50;;;;;;;100.82;46.08;;;;;;;2.75;100.00;96756.94;5005446;28;20045;-62
2020/12/25 06:14:16;;;;;;;100.75;41.85;;;;;;;2.62;100.00;96725.16;5005743;28;20168;-62
2020/12/25 06:16:51;;;;;;;150.60;61.50;;;;;;;2.51;100.00;96685.59;5004177;28;20100;-62
2020/12/25 06:19:25;;;;;;;131.85;57.65;;;;;;;2.76;100.00;96722.19;5004179;28;20041;-64
2020/12/25 06:22:00;;;;;;;193.13;82.57;;;;;;;2.89;100.00;96730.16;5004455;28;20512;-62
2020/12/25 06:24:35;;;;;;;145.50;63.55;;;;;;;3.03;100.00;96751.84;5005858;28;20042;-63
2020/12/25 06:27:01;;;;;;;161.40;69.65;;;;;;;2.41;100.00;96655.13;5005713;28;20109;-62
2020/12/25 06:29:28;;;;;;;149.43;65.50;;;;;;;3.11;100.00;96751.00;5005932;28;20038;-62
2020/12/25 06:32:00;;;;;;;151.00;70.82;;;;;;;3.12;100.00;96752.59;5004358;28;20037;-63
2020/12/25 06:34:39;;;;;;;154.68;68.60;;;;;;;2.65;100.00;96671.75;5005881;28;20057;-62
2020/12/25 06:37:11;;;;;;;128.15;61.95;;;;;;;3.13;100.00;96715.88;5004372;28;20803;-62
2020/12/25 06:39:36;;;;;;;166.63;79.00;;;;;;;3.45;99.88;96745.31;5003921;28;20107;-65
2020/12/25 06:42:02;;;;;;;102.70;54.00;;;;;;;3.42;99.32;96750.66;5003775;28;20119;-65
2020/12/25 06:44:29;;;;;;;66.22;36.15;;;;;;;2.73;98.53;96624.41;5003769;28;20040;-64
2020/12/25 06:47:00;;;;;;;72.28;39.83;;;;;;;2.16;97.05;96557.66;5004879;28;20397;-64
2020/12/25 06:49:35;;;;;;;59.92;34.03;;;;;;;3.48;97.88;96755.59;5003861;28;20448;-64
2020/12/25 06:52:01;;;;;;;102.60;47.33;;;;;;;3.30;98.55;96710.31;5003425;28;20033;-65
2020/12/25 06:54:27;;;;;;;158.88;71.13;;;;;;;2.57;98.48;96571.44;5003441;28;20512;-66
2020/12/25 06:56:54;;;;;;;175.73;83.07;;;;;;;3.55;98.33;96720.28;5005424;28;20029;-66
2020/12/25 06:59:21;;;;;;;176.77;88.45;;;;;;;3.43;99.25;96687.34;5003761;28;20120;-65
2020/12/25 07:01:48;;;;;;;173.00;85.25;;;;;;;3.90;98.71;96740.81;5005004;28;20069;-65
2020/12/25 07:04:29;;;;;;;160.07;86.05;;;;;;;4.08;97.70;96734.03;5005175;28;20030;-66
2020/12/25 07:07:06;;;;;;;154.32;80.10;;;;;;;4.12;98.37;96737.72;5005067;28;20544;-66
2020/12/25 07:10:01;;;;;;;148.57;79.78;;;;;;;4.25;96.55;96719.38;5006110;28;20038;-65
2020/12/25 07:12:26;;;;;;;152.90;82.05;;;;;;;4.45;96.30;96735.78;5019446;28;20480;-66
2020/12/25 07:14:52;;;;;;;91.82;48.25;;;;;;;4.38;95.24;96737.44;5004838;28;20033;-65
2020/12/25 07:17:17;;;;;;;90.43;48.17;;;;;;;3.73;99.26;96756.56;5003326;28;20692;-65
2020/12/25 07:19:43;;;;;;;99.43;53.47;;;;;;;3.55;100.00;96700.31;5003267;28;20040;-65
2020/12/25 07:22:09;;;;;;;104.45;53.22;;;;;;;3.66;99.49;96701.53;5004872;28;20115;-65
2020/12/25 07:24:39;;;;;;;81.30;43.65;;;;;;;3.64;100.00;96731.16;5004944;28;20034;-65
2020/12/25 07:27:05;;;;;;;122.50;65.65;;;;;;;4.14;99.50;96762.81;5003323;28;20061;-65
2020/12/25 07:29:32;;;;;;;136.30;71.80;;;;;;;4.39;96.92;96771.97;5004822;28;20030;-64
2020/12/25 07:31:57;;;;;;;131.52;73.40;;;;;;;4.57;96.93;96754.19;5004342;28;20108;-66
2020/12/25 07:34:24;;;;;;;149.02;85.03;;;;;;;4.65;94.82;96745.88;5002876;28;20460;-66
2020/12/25 07:36:52;;;;;;;132.32;77.75;;;;;;;4.48;94.62;96690.41;5004326;28;20038;-65
2020/12/25 07:39:19;;;;;;;107.13;60.00;;;;;;;4.68;94.24;96757.31;5003062;28;20076;-66
2020/12/25 07:41:45;;;;;;;118.60;62.05;;;;;;;4.62;95.58;96746.56;5003047;28;20532;-66
2020/12/25 07:44:10;;;;;;;142.93;79.38;;;;;;;3.77;94.12;96577.53;5004617;28;20113;-66
2020/12/25 07:46:38;;;;;;;85.63;46.63;;;;;;;5.22;92.95;96747.75;5019304;28;20645;-67
2020/12/25 07:49:05;;;;;;;118.22;62.08;;;;;;;5.16;92.45;96721.69;5003526;28;20547;-66
2020/12/25 07:51:31;;;;;;;148.63;78.30;;;;;;;5.44;92.64;96742.63;5004966;28;20049;-67
2020/12/25 07:53:58;;;;;;;152.23;82.75;;;;;;;5.59;91.58;96752.91;5006256;28;20061;-66
2020/12/25 07:56:34;;;;;;;146.68;82.70;;;;;;;5.40;90.92;96683.22;5006774;28;20128;-65
2020/12/25 07:59:00;;;;;;;145.02;84.70;;;;;;;5.83;90.17;96746.59;5006926;28;20555;-66
2020/12/25 08:01:28;;;;;;;115.80;64.35;;;;;;;6.05;89.67;96743.34;5008203;28;20042;-65
2020/12/25 08:03:56;;;;;;;104.15;57.58;;;;;;;6.09;89.28;96738.72;5008005;28;20670;-65
2020/12/25 08:06:23;;;;;;;89.93;49.95;;;;;;;5.91;89.66;96720.94;5006323;28;20042;-65
2020/12/25 08:08:52;;;;;;;97.00;55.97;;;;;;;6.35;88.69;96755.59;5008409;28;20045;-65
2020/12/25 08:11:20;;;;;;;113.15;67.07;;;;;;;6.05;90.25;96726.84;5008172;28;20045;-66
2020/12/25 08:13:48;;;;;;;117.05;67.60;;;;;;;6.37;89.72;96728.53;5008356;28;20109;-65
2020/12/25 08:16:14;;;;;;;103.53;59.55;;;;;;;6.71;88.45;96741.66;5006578;28;20040;-64
2020/12/25 08:18:40;;;;;;;118.30;67.68;;;;;;;6.77;87.34;96743.00;5006513;28;20249;-65
2020/12/25 08:21:05;;;;;;;104.70;62.00;;;;;;;6.95;86.61;96741.53;5007994;28;20042;-65
2020/12/25 08:23:34;;;;;;;105.40;61.28;;;;;;;6.53;86.99;96706.59;5008233;28;20045;-66
2020/12/25 08:26:01;;;;;;;122.47;69.32;;;;;;;6.51;87.16;96676.69;5007960;28;20073;-66
2020/12/25 08:28:32;;;;;;;170.80;96.10;;;;;;;6.65;89.56;96756.84;5008189;28;20648;-65
2020/12/25 08:30:58;;;;;;;176.68;100.80;;;;;;;6.61;88.77;96750.44;5007831;28;20493;-65
2020/12/25 08:33:27;;;;;;;163.52;95.65;;;;;;;6.68;88.52;96745.13;5007935;28;20061;-67
2020/12/25 08:35:53;;;;;;;156.10;90.38;;;;;;;6.68;89.29;96771.84;5008093;28;20073;-65
2020/12/25 08:38:20;;;;;;;131.52;77.40;;;;;;;6.84;88.71;96762.47;5002742;28;20042;-64
2020/12/25 08:40:47;;;;;;;99.43;58.00;;;;;;;6.82;89.00;96775.78;4988681;28;20126;-65
2020/12/25 08:43:18;;;;;;;94.30;57.10;;;;;;;6.81;89.52;96767.88;4988362;28;20050;-66
2020/12/25 08:45:59;;;;;;;94.20;57.83;;;;;;;6.92;88.10;96757.94;5002925;28;20041;-65
2020/12/25 08:48:25;;;;;;;89.93;53.50;;;;;;;6.81;88.84;96765.13;4986431;28;20042;-66
2020/12/25 08:51:04;;;;;;;89.50;55.05;;;;;;;6.94;89.24;96745.41;4988083;28;20034;-65
2020/12/25 08:53:30;;;;;;;131.52;64.30;;;;;;;7.00;90.69;96744.00;4988093;28;20132;-65
2020/12/25 08:55:55;;;;;;;86.10;51.78;;;;;;;7.22;90.35;96743.38;4988400;28;20034;-67
2020/12/25 08:58:24;;;;;;;72.30;43.92;;;;;;;7.16;89.68;96673.19;5002783;28;20088;-65
2020/12/25 09:01:00;;;;;;;90.40;50.65;;;;;;;7.94;87.57;96730.09;5002904;28;20448;-65
2020/12/25 09:03:42;;;;;;;89.53;53.85;;;;;;;8.06;85.62;96711.44;4987636;28;20136;-65
2020/12/25 09:06:09;;;;;;;97.63;59.22;;;;;;;8.12;86.88;96725.78;4986153;28;20480;-66
2020/12/25 09:08:36;;;;;;;100.20;58.78;;;;;;;7.27;85.58;96566.81;4987871;28;20037;-65
2020/12/25 09:11:06;;;;;;;95.03;58.42;;;;;;;8.32;84.61;96721.88;5005296;28;20040;-67
2020/12/25 09:13:31;;;;;;;91.20;58.03;;;;;;;8.08;83.76;96631.13;5005378;28;20037;-66
2020/12/25 09:15:57;;;;;;;94.93;56.13;;;;;;;8.42;84.37;96715.78;5007344;28;20034;-65
2020/12/25 09:18:22;;;;;;;96.55;62.65;;;;;;;8.27;84.47;96620.88;5005602;28;20378;-65
2020/12/25 09:20:48;;;;;;;95.65;61.42;;;;;;;9.02;82.87;96703.91;5007165;28;20034;-65
2020/12/25 09:23:13;;;;;;;73.97;46.78;;;;;;;9.28;82.46;96690.09;5007387;28;20489;-65
2020/12/25 09:25:39;;;;;;;66.63;41.28;;;;;;;9.07;81.69;96651.09;5005088;28;20049;-66
2020/12/25 09:28:04;;;;;;;81.93;48.90;;;;;;;9.54;79.92;96676.31;5006606;28;20128;-66
2020/12/25 09:30:30;;;;;;;85.68;54.80;;;;;;;9.27;80.31;96644.31;5006835;28;20133;-65
2020/12/25 09:32:55;;;;;;;89.57;52.95;;;;;;;9.93;79.71;96655.53;5006950;28;20034;-66
2020/12/25 09:35:20;;;;;;;61.60;39.33;;;;;;;10.22;78.74;96665.81;5005049;28;20037;-66
2020/12/25 09:37:46;;;;;;;61.03;35.85;;;;;;;10.19;78.68;96674.88;5006478;28;20042;-66
2020/12/25 09:40:11;;;;;;;60.40;39.67;;;;;;;9.72;78.28;96586.09;5006467;28;20045;-67
2020/12/25 09:42:37;;;;;;;63.20;37.80;;;;;;;9.96;79.14;96671.38;5006223;28;20113;-66
2020/12/25 09:45:02;;;;;;;62.50;38.35;;;;;;;8.84;83.45;96586.78;5006555;28;20426;-65
2020/12/25 09:47:28;;;;;;;54.38;33.03;;;;;;;9.54;83.11;96654.19;5006328;28;20400;-67
2020/12/25 09:49:53;;;;;;;50.47;30.92;;;;;;;9.10;85.67;96625.50;5006924;28;20030;-66
2020/12/25 09:52:18;;;;;;;62.17;39.25;;;;;;;8.63;86.02;96520.19;5006281;28;20148;-67
2020/12/25 09:54:44;;;;;;;41.50;23.67;;;;;;;9.20;85.25;96649.72;5005773;28;20064;-66
2020/12/25 09:57:10;;;;;;;38.53;23.40;;;;;;;9.02;88.38;96640.34;5006031;28;20038;-66
2020/12/25 09:59:35;;;;;;;34.97;20.00;;;;;;;8.24;89.75;96584.94;5006175;28;20033;-66
2020/12/25 10:02:01;;;;;;;38.92;22.15;;;;;;;8.62;92.78;96637.28;5005709;28;20049;-68
2020/12/25 10:04:26;;;;;;;28.02;18.13;;;;;;;6.71;93.10;96359.13;5004572;28;20527;-66
2020/12/25 10:06:56;;;;;;;29.50;18.35;;;;;;;8.12;94.96;96632.78;5005977;28;20501;-65
2020/12/25 10:09:21;;;;;;;34.60;19.80;;;;;;;7.69;95.40;96575.19;5006102;28;20497;-67
2020/12/25 10:11:47;;;;;;;34.80;22.35;;;;;;;7.76;96.09;96553.28;5004562;28;20044;-66
2020/12/25 10:14:13;;;;;;;45.70;24.95;;;;;;;8.61;94.60;96632.94;5006140;28;20133;-66
2020/12/25 10:16:38;;;;;;;38.08;22.33;;;;;;;8.98;91.60;96625.66;5005439;28;20038;-66
2020/12/25 10:19:04;;;;;;;200.25;94.93;;;;;;;8.62;88.67;96510.31;5006079;28;20034;-67
2020/12/25 10:21:30;;;;;;;73.57;40.22;;;;;;;9.71;86.78;96631.53;5006231;28;20061;-67
2020/12/25 10:23:55;;;;;;;41.67;24.73;;;;;;;9.99;85.80;96625.56;5005982;28;20119;-66
2020/12/25 10:26:21;;;;;;;157.93;86.65;;;;;;;9.82;83.30;96554.19;5005812;28;20090;-66
2020/12/25 10:28:46;;;;;;;61.05;36.53;;;;;;;10.47;82.58;96608.75;5004170;28;20053;-67
2020/12/25 10:31:12;;;;;;;50.20;27.85;;;;;;;10.84;79.83;96619.00;5003989;28;20034;-66
2020/12/25 10:33:38;;;;;;;38.50;25.17;;;;;;;10.60;79.27;96574.06;5005842;28;20030;-66
2020/12/25 10:36:04;;;;;;;89.10;40.25;;;;;;;11.07;77.33;96602.94;5004032;28;20037;-67
2020/12/25 10:38:30;;;;;;;66.10;35.95;;;;;;;10.89;76.88;96560.47;5005523;28;20519;-67
2020/12/25 10:40:55;;;;;;;60.30;31.77;;;;;;;11.28;77.36;96603.13;5005753;28;20860;-67
2020/12/25 10:43:20;;;;;;;68.75;38.75;;;;;;;11.47;76.78;96591.75;5003711;28;20043;-68
2020/12/25 10:45:46;;;;;;;68.85;39.72;;;;;;;11.56;74.67;96600.53;5003760;28;20091;-68
2020/12/25 10:48:12;;;;;;;162.38;93.90;;;;;;;11.31;74.34;96541.34;5005222;28;20034;-68
2020/12/25 10:50:37;;;;;;;137.80;80.18;;;;;;;11.44;74.73;96524.00;5004955;28;20586;-68
2020/12/25 10:53:03;;;;;;;79.28;49.55;;;;;;;10.90;73.20;96423.50;5003458;28;20049;-69
2020/12/25 10:55:28;;;;;;;77.45;48.28;;;;;;;11.93;73.50;96551.19;5004918;28;20080;-67
2020/12/25 10:57:54;;;;;;;84.50;53.67;;;;;;;11.68;72.61;96500.38;5003909;28;20068;-68
2020/12/25 11:00:22;;;;;;;91.28;56.05;;;;;;;11.89;70.95;96550.38;5003231;28;20341;-69
2020/12/25 11:02:48;;;;;;;92.45;58.22;;;;;;;12.33;70.46;96575.91;5003704;28;20463;-68
2020/12/25 11:05:15;;;;;;;82.97;51.28;;;;;;;12.18;71.09;96557.63;5004026;28;20037;-67
2020/12/25 11:07:40;;;;;;;100.50;70.03;;;;;;;12.40;70.21;96552.91;5004983;28;20172;-66
2020/12/25 11:10:06;;;;;;;78.10;49.85;;;;;;;12.34;69.03;96519.19;5004594;28;20163;-66
2020/12/25 11:12:31;;;;;;;73.20;45.85;;;;;;;12.83;68.27;96549.00;5003125;28;20101;-66
2020/12/25 11:14:57;;;;;;;82.30;47.80;;;;;;;12.35;69.97;96501.31;5003261;28;20519;-68